sensor_id;sensor_type;location;lat;lon;timestamp;pressure;altitude;pressure_sealevel;temperature;humidity
52719;BME280;38616;42.140;24.760;2023-04-20T00:01:57;99165.00;;;13.01;76.71
52719;BME280;38616;42.140;24.760;2023-04-20T00:04:27;99163.16;;;13.10;76.44
52719;BME280;38616;42.140;24.760;2023-04-20T00:06:52;99158.13;;;13.04;76.66
52719;BME280;38616;42.140;24.760;2023-04-20T00:09:18;99164.78;;;13.11;76.38
52719;BME280;38616;42.140;24.760;2023-04-20T00:11:44;99156.31;;;12.99;76.08
52719;BME280;38616;42.140;24.760;2023-04-20T00:14:09;99157.72;;;13.10;75.91
52719;BME280;38616;42.140;24.760;2023-04-20T00:16:35;99151.38;;;13.01;76.09
52719;BME280;38616;42.140;24.760;2023-04-20T00:19:00;99156.22;;;12.90;76.20
52719;BME280;38616;42.140;24.760;2023-04-20T00:21:28;99150.78;;;12.90;75.98
52719;BME280;38616;42.140;24.760;2023-04-20T00:23:53;99148.66;;;13.01;76.55
52719;BME280;38616;42.140;24.760;2023-04-20T00:26:19;99151.88;;;13.03;75.14
52719;BME280;38616;42.140;24.760;2023-04-20T00:28:45;99150.25;;;13.02;75.03
52719;BME280;38616;42.140;24.760;2023-04-20T00:31:10;99151.59;;;12.91;74.17
52719;BME280;38616;42.140;24.760;2023-04-20T00:33:36;99145.25;;;12.81;73.97
52719;BME280;38616;42.140;24.760;2023-04-20T00:36:01;99152.28;;;12.96;74.23
52719;BME280;38616;42.140;24.760;2023-04-20T00:38:27;99147.38;;;12.84;73.91
52719;BME280;38616;42.140;24.760;2023-04-20T00:40:55;99151.13;;;12.75;72.55
52719;BME280;38616;42.140;24.760;2023-04-20T00:43:21;99157.81;;;12.54;71.43
52719;BME280;38616;42.140;24.760;2023-04-20T00:45:50;99144.69;;;12.43;71.77
52719;BME280;38616;42.140;24.760;2023-04-20T00:48:19;99153.56;;;12.62;71.07
52719;BME280;38616;42.140;24.760;2023-04-20T00:50:45;99158.56;;;12.83;71.51
52719;BME280;38616;42.140;24.760;2023-04-20T00:53:11;99147.38;;;12.84;70.64
52719;BME280;38616;42.140;24.760;2023-04-20T00:55:38;99152.72;;;12.90;71.34
52719;BME280;38616;42.140;24.760;2023-04-20T00:58:03;99159.06;;;12.99;71.56
52719;BME280;38616;42.140;24.760;2023-04-20T01:00:31;99149.53;;;12.96;70.89
52719;BME280;38616;42.140;24.760;2023-04-20T01:02:57;99151.78;;;12.94;71.36
52719;BME280;38616;42.140;24.760;2023-04-20T01:05:22;99148.94;;;12.99;71.06
52719;BME280;38616;42.140;24.760;2023-04-20T01:07:48;99146.81;;;12.96;70.82
52719;BME280;38616;42.140;24.760;2023-04-20T01:10:14;99154.00;;;12.92;70.50
52719;BME280;38616;42.140;24.760;2023-04-20T01:12:41;99152.09;;;12.93;70.42
52719;BME280;38616;42.140;24.760;2023-04-20T01:15:08;99146.50;;;12.61;69.44
52719;BME280;38616;42.140;24.760;2023-04-20T01:17:34;99148.50;;;12.55;70.64
52719;BME280;38616;42.140;24.760;2023-04-20T01:20:08;99152.28;;;12.46;70.61
52719;BME280;38616;42.140;24.760;2023-04-20T01:22:53;99146.34;;;12.30;70.60
52719;BME280;38616;42.140;24.760;2023-04-20T01:25:19;99143.00;;;12.47;69.98
52719;BME280;38616;42.140;24.760;2023-04-20T01:27:45;99139.44;;;12.46;70.03
52719;BME280;38616;42.140;24.760;2023-04-20T01:30:11;99137.41;;;12.66;69.38
52719;BME280;38616;42.140;24.760;2023-04-20T01:32:37;99138.72;;;12.54;67.77
52719;BME280;38616;42.140;24.760;2023-04-20T01:35:04;99145.38;;;12.48;67.87
52719;BME280;38616;42.140;24.760;2023-04-20T01:37:29;99135.03;;;12.36;67.68
52719;BME280;38616;42.140;24.760;2023-04-20T01:39:55;99131.38;;;12.55;66.42
52719;BME280;38616;42.140;24.760;2023-04-20T01:42:21;99132.66;;;12.71;66.67
52719;BME280;38616;42.140;24.760;2023-04-20T01:44:47;99133.13;;;12.88;65.53
52719;BME280;38616;42.140;24.760;2023-04-20T01:47:13;99131.78;;;12.99;65.19
52719;BME280;38616;42.140;24.760;2023-04-20T01:49:38;99127.28;;;12.80;65.74
52719;BME280;38616;42.140;24.760;2023-04-20T01:52:05;99127.28;;;12.80;64.03
52719;BME280;38616;42.140;24.760;2023-04-20T01:54:30;99133.97;;;12.74;64.53
52719;BME280;38616;42.140;24.760;2023-04-20T01:56:55;99138.84;;;12.63;63.03
52719;BME280;38616;42.140;24.760;2023-04-20T01:59:22;99131.78;;;12.48;64.02
52719;BME280;38616;42.140;24.760;2023-04-20T02:01:47;99128.66;;;12.55;63.42
52719;BME280;38616;42.140;24.760;2023-04-20T02:04:12;99133.16;;;12.60;62.99
52719;BME280;38616;42.140;24.760;2023-04-20T02:06:38;99126.50;;;12.66;63.09
52719;BME280;38616;42.140;24.760;2023-04-20T02:09:03;99130.94;;;12.62;63.00
52719;BME280;38616;42.140;24.760;2023-04-20T02:11:28;99117.53;;;12.65;61.78
52719;BME280;38616;42.140;24.760;2023-04-20T02:13:54;99127.22;;;12.57;63.09
52719;BME280;38616;42.140;24.760;2023-04-20T02:16:19;99125.00;;;12.60;62.49
52719;BME280;38616;42.140;24.760;2023-04-20T02:18:46;99128.28;;;12.84;62.25
52719;BME280;38616;42.140;24.760;2023-04-20T02:21:11;99132.75;;;12.80;61.99
52719;BME280;38616;42.140;24.760;2023-04-20T02:23:37;99133.75;;;12.84;62.06
52719;BME280;38616;42.140;24.760;2023-04-20T02:26:02;99138.41;;;12.70;61.10
52719;BME280;38616;42.140;24.760;2023-04-20T02:28:27;99135.78;;;12.79;62.03
52719;BME280;38616;42.140;24.760;2023-04-20T02:30:53;99135.97;;;12.82;62.37
52719;BME280;38616;42.140;24.760;2023-04-20T02:33:18;99136.56;;;12.79;61.43
52719;BME280;38616;42.140;24.760;2023-04-20T02:35:46;99135.03;;;12.87;61.26
52719;BME280;38616;42.140;24.760;2023-04-20T02:38:11;99135.28;;;12.77;61.18
52719;BME280;38616;42.140;24.760;2023-04-20T02:40:39;99143.31;;;12.82;60.65
52719;BME280;38616;42.140;24.760;2023-04-20T02:43:05;99142.47;;;12.59;61.67
52719;BME280;38616;42.140;24.760;2023-04-20T02:45:31;99142.63;;;12.76;60.69
52719;BME280;38616;42.140;24.760;2023-04-20T02:47:56;99143.53;;;12.85;60.44
52719;BME280;38616;42.140;24.760;2023-04-20T02:50:22;99138.53;;;13.01;60.51
52719;BME280;38616;42.140;24.760;2023-04-20T02:52:47;99137.63;;;13.06;59.97
52719;BME280;38616;42.140;24.760;2023-04-20T02:55:13;99130.00;;;12.80;59.36
52719;BME280;38616;42.140;24.760;2023-04-20T02:57:38;99135.69;;;12.70;60.43
52719;BME280;38616;42.140;24.760;2023-04-20T03:00:04;99130.25;;;12.56;60.49
52719;BME280;38616;42.140;24.760;2023-04-20T03:02:32;99130.84;;;12.67;60.62
52719;BME280;38616;42.140;24.760;2023-04-20T03:04:58;99146.91;;;12.68;60.23
52719;BME280;38616;42.140;24.760;2023-04-20T03:07:23;99137.31;;;12.57;60.33
52719;BME280;38616;42.140;24.760;2023-04-20T03:09:49;99136.03;;;12.26;60.14
52719;BME280;38616;42.140;24.760;2023-04-20T03:12:14;99132.72;;;12.30;60.17
52719;BME280;38616;42.140;24.760;2023-04-20T03:14:39;99148.13;;;12.48;60.17
52719;BME280;38616;42.140;24.760;2023-04-20T03:17:05;99137.22;;;12.62;59.77
52719;BME280;38616;42.140;24.760;2023-04-20T03:19:31;99139.44;;;12.60;59.35
52719;BME280;38616;42.140;24.760;2023-04-20T03:21:56;99137.31;;;12.43;59.96
52719;BME280;38616;42.140;24.760;2023-04-20T03:24:22;99141.66;;;12.44;59.85
52719;BME280;38616;42.140;24.760;2023-04-20T03:26:48;99138.84;;;12.49;59.86
52719;BME280;38616;42.140;24.760;2023-04-20T03:29:13;99135.22;;;12.26;60.22
52719;BME280;38616;42.140;24.760;2023-04-20T03:31:39;99133.00;;;12.14;60.72
52719;BME280;38616;42.140;24.760;2023-04-20T03:34:04;99133.09;;;12.37;60.53
52719;BME280;38616;42.140;24.760;2023-04-20T03:36:29;99135.81;;;12.51;59.91
52719;BME280;38616;42.140;24.760;2023-04-20T03:38:56;99130.44;;;12.60;60.03
52719;BME280;38616;42.140;24.760;2023-04-20T03:41:21;99133.53;;;12.81;59.63
52719;BME280;38616;42.140;24.760;2023-04-20T03:43:46;99134.53;;;12.85;59.44
52719;BME280;38616;42.140;24.760;2023-04-20T03:46:12;99122.66;;;12.67;59.94
52719;BME280;38616;42.140;24.760;2023-04-20T03:48:37;99135.91;;;12.60;60.10
52719;BME280;38616;42.140;24.760;2023-04-20T03:51:03;99140.84;;;12.57;60.87
52719;BME280;38616;42.140;24.760;2023-04-20T03:53:28;99139.34;;;12.65;60.38
52719;BME280;38616;42.140;24.760;2023-04-20T03:55:54;99137.00;;;12.59;60.31
52719;BME280;38616;42.140;24.760;2023-04-20T03:58:20;99141.84;;;12.62;59.74
52719;BME280;38616;42.140;24.760;2023-04-20T04:00:46;99139.13;;;12.62;59.84
52719;BME280;38616;42.140;24.760;2023-04-20T04:03:12;99149.31;;;12.70;59.52
52719;BME280;38616;42.140;24.760;2023-04-20T04:05:39;99141.16;;;12.42;59.74
52719;BME280;38616;42.140;24.760;2023-04-20T04:08:04;99143.78;;;12.47;60.03
52719;BME280;38616;42.140;24.760;2023-04-20T04:10:30;99150.84;;;12.62;59.30
52719;BME280;38616;42.140;24.760;2023-04-20T04:12:56;99147.22;;;12.53;59.44
52719;BME280;38616;42.140;24.760;2023-04-20T04:15:21;99149.34;;;12.56;59.64
52719;BME280;38616;42.140;24.760;2023-04-20T04:17:47;99154.41;;;12.35;59.38
52719;BME280;38616;42.140;24.760;2023-04-20T04:20:13;99156.69;;;12.55;59.91
52719;BME280;38616;42.140;24.760;2023-04-20T04:22:40;99161.22;;;12.74;59.18
52719;BME280;38616;42.140;24.760;2023-04-20T04:25:06;99164.44;;;12.76;57.90
52719;BME280;38616;42.140;24.760;2023-04-20T04:27:32;99163.75;;;12.70;58.48
52719;BME280;38616;42.140;24.760;2023-04-20T04:30:02;99162.66;;;12.57;58.90
52719;BME280;38616;42.140;24.760;2023-04-20T04:32:27;99161.09;;;12.79;59.29
52719;BME280;38616;42.140;24.760;2023-04-20T04:34:53;99161.03;;;12.56;58.87
52719;BME280;38616;42.140;24.760;2023-04-20T04:37:19;99171.53;;;12.49;60.08
52719;BME280;38616;42.140;24.760;2023-04-20T04:39:45;99156.28;;;12.62;59.88
52719;BME280;38616;42.140;24.760;2023-04-20T04:42:10;99161.94;;;12.66;60.06
52719;BME280;38616;42.140;24.760;2023-04-20T04:44:36;99159.72;;;12.68;60.02
52719;BME280;38616;42.140;24.760;2023-04-20T04:47:05;99152.97;;;12.65;60.12
52719;BME280;38616;42.140;24.760;2023-04-20T04:49:31;99162.84;;;12.61;61.00
52719;BME280;38616;42.140;24.760;2023-04-20T04:51:57;99162.25;;;12.64;60.62
52719;BME280;38616;42.140;24.760;2023-04-20T04:54:22;99164.94;;;12.78;59.97
52719;BME280;38616;42.140;24.760;2023-04-20T04:56:47;99163.84;;;12.79;59.77
52719;BME280;38616;42.140;24.760;2023-04-20T04:59:13;99165.34;;;12.85;59.37
52719;BME280;38616;42.140;24.760;2023-04-20T05:01:38;99158.00;;;12.58;59.84
52719;BME280;38616;42.140;24.760;2023-04-20T05:04:03;99167.72;;;12.36;60.44
52719;BME280;38616;42.140;24.760;2023-04-20T05:06:29;99162.34;;;12.59;59.35
52719;BME280;38616;42.140;24.760;2023-04-20T05:08:55;99170.13;;;12.24;59.93
52719;BME280;38616;42.140;24.760;2023-04-20T05:11:21;99172.94;;;12.19;60.63
52719;BME280;38616;42.140;24.760;2023-04-20T05:13:46;99174.69;;;12.29;61.02
52719;BME280;38616;42.140;24.760;2023-04-20T05:16:12;99171.94;;;12.56;60.22
52719;BME280;38616;42.140;24.760;2023-04-20T05:18:38;99166.97;;;12.59;60.22
52719;BME280;38616;42.140;24.760;2023-04-20T05:21:05;99164.25;;;12.73;59.95
52719;BME280;38616;42.140;24.760;2023-04-20T05:23:33;99174.34;;;12.72;60.00
52719;BME280;38616;42.140;24.760;2023-04-20T05:25:58;99168.34;;;12.98;59.14
52719;BME280;38616;42.140;24.760;2023-04-20T05:28:24;99169.72;;;13.09;59.12
52719;BME280;38616;42.140;24.760;2023-04-20T05:30:50;99175.94;;;13.24;58.27
52719;BME280;38616;42.140;24.760;2023-04-20T05:33:19;99174.44;;;13.18;58.58
52719;BME280;38616;42.140;24.760;2023-04-20T05:35:48;99173.47;;;13.13;58.34
52719;BME280;38616;42.140;24.760;2023-04-20T05:38:15;99181.38;;;13.01;58.75
52719;BME280;38616;42.140;24.760;2023-04-20T05:40:41;99179.31;;;13.07;58.51
52719;BME280;38616;42.140;24.760;2023-04-20T05:43:06;99171.22;;;13.15;58.26
52719;BME280;38616;42.140;24.760;2023-04-20T05:45:32;99179.28;;;13.21;57.70
52719;BME280;38616;42.140;24.760;2023-04-20T05:47:58;99184.47;;;13.08;58.19
52719;BME280;38616;42.140;24.760;2023-04-20T05:50:24;99181.25;;;13.06;57.59
52719;BME280;38616;42.140;24.760;2023-04-20T05:52:50;99181.16;;;12.97;57.25
52719;BME280;38616;42.140;24.760;2023-04-20T05:55:16;99185.22;;;12.86;57.26
52719;BME280;38616;42.140;24.760;2023-04-20T05:57:42;99175.47;;;13.08;55.76
52719;BME280;38616;42.140;24.760;2023-04-20T06:00:15;99177.59;;;13.48;55.50
52719;BME280;38616;42.140;24.760;2023-04-20T06:02:41;99173.56;;;13.45;55.28
52719;BME280;38616;42.140;24.760;2023-04-20T06:05:08;99183.22;;;13.74;54.88
52719;BME280;38616;42.140;24.760;2023-04-20T06:07:34;99179.59;;;13.87;54.65
52719;BME280;38616;42.140;24.760;2023-04-20T06:10:00;99179.44;;;13.61;54.53
52719;BME280;38616;42.140;24.760;2023-04-20T06:12:26;99183.16;;;13.65;54.82
52719;BME280;38616;42.140;24.760;2023-04-20T06:14:54;99172.22;;;13.56;54.81
52719;BME280;38616;42.140;24.760;2023-04-20T06:17:19;99183.53;;;13.50;54.79
52719;BME280;38616;42.140;24.760;2023-04-20T06:19:44;99184.66;;;13.71;54.95
52719;BME280;38616;42.140;24.760;2023-04-20T06:22:11;99187.69;;;13.70;54.83
52719;BME280;38616;42.140;24.760;2023-04-20T06:24:37;99190.97;;;13.81;54.41
52719;BME280;38616;42.140;24.760;2023-04-20T06:27:03;99189.59;;;13.92;54.53
52719;BME280;38616;42.140;24.760;2023-04-20T06:29:28;99192.59;;;13.59;55.10
52719;BME280;38616;42.140;24.760;2023-04-20T06:31:53;99184.28;;;13.41;54.72
52719;BME280;38616;42.140;24.760;2023-04-20T06:34:19;99171.13;;;13.43;54.92
52719;BME280;38616;42.140;24.760;2023-04-20T06:36:45;99187.38;;;13.49;55.61
52719;BME280;38616;42.140;24.760;2023-04-20T06:39:15;99185.56;;;13.89;54.96
52719;BME280;38616;42.140;24.760;2023-04-20T06:41:41;99174.06;;;14.01;54.97
52719;BME280;38616;42.140;24.760;2023-04-20T06:44:06;99177.44;;;13.98;54.39
52719;BME280;38616;42.140;24.760;2023-04-20T06:46:32;99179.59;;;13.87;54.36
52719;BME280;38616;42.140;24.760;2023-04-20T06:48:57;99183.28;;;13.83;55.37
52719;BME280;38616;42.140;24.760;2023-04-20T06:51:23;99177.16;;;14.09;55.02
52719;BME280;38616;42.140;24.760;2023-04-20T06:53:49;99177.41;;;14.30;54.18
52719;BME280;38616;42.140;24.760;2023-04-20T06:56:15;99182.13;;;14.07;54.59
52719;BME280;38616;42.140;24.760;2023-04-20T06:58:40;99180.22;;;14.16;54.01
52719;BME280;38616;42.140;24.760;2023-04-20T07:01:05;99174.13;;;14.19;52.97
52719;BME280;38616;42.140;24.760;2023-04-20T07:03:31;99182.28;;;14.10;53.86
52719;BME280;38616;42.140;24.760;2023-04-20T07:05:56;99172.34;;;14.14;53.60
52719;BME280;38616;42.140;24.760;2023-04-20T07:08:21;99178.53;;;14.29;52.48
52719;BME280;38616;42.140;24.760;2023-04-20T07:10:47;99176.19;;;14.04;52.36
52719;BME280;38616;42.140;24.760;2023-04-20T07:13:12;99176.06;;;14.18;52.53
52719;BME280;38616;42.140;24.760;2023-04-20T07:15:38;99185.69;;;14.16;52.09
52719;BME280;38616;42.140;24.760;2023-04-20T07:18:03;99180.38;;;14.11;52.31
52719;BME280;38616;42.140;24.760;2023-04-20T07:20:29;99179.34;;;13.98;52.35
52719;BME280;38616;42.140;24.760;2023-04-20T07:22:54;99188.47;;;13.93;52.84
52719;BME280;38616;42.140;24.760;2023-04-20T07:25:19;99170.88;;;14.08;52.72
52719;BME280;38616;42.140;24.760;2023-04-20T07:27:45;99169.47;;;14.69;52.47
52719;BME280;38616;42.140;24.760;2023-04-20T07:30:11;99169.66;;;14.72;51.71
52719;BME280;38616;42.140;24.760;2023-04-20T07:32:37;99176.47;;;14.92;51.17
52719;BME280;38616;42.140;24.760;2023-04-20T07:35:03;99174.06;;;15.09;51.13
52719;BME280;38616;42.140;24.760;2023-04-20T07:37:29;99172.91;;;14.83;50.96
52719;BME280;38616;42.140;24.760;2023-04-20T07:39:57;99172.41;;;14.72;50.81
52719;BME280;38616;42.140;24.760;2023-04-20T07:42:23;99182.84;;;14.70;50.59
52719;BME280;38616;42.140;24.760;2023-04-20T07:44:48;99178.75;;;14.50;50.60
52719;BME280;38616;42.140;24.760;2023-04-20T07:47:14;99180.84;;;14.53;51.33
52719;BME280;38616;42.140;24.760;2023-04-20T07:49:40;99173.06;;;14.78;50.20
52719;BME280;38616;42.140;24.760;2023-04-20T07:52:06;99184.84;;;14.47;50.99
52719;BME280;38616;42.140;24.760;2023-04-20T07:54:31;99180.72;;;14.58;50.60
52719;BME280;38616;42.140;24.760;2023-04-20T07:56:58;99181.28;;;14.78;51.00
52719;BME280;38616;42.140;24.760;2023-04-20T07:59:23;99182.41;;;14.77;51.04
52719;BME280;38616;42.140;24.760;2023-04-20T08:01:49;99181.94;;;15.01;51.17
52719;BME280;38616;42.140;24.760;2023-04-20T08:04:15;99177.13;;;14.89;50.98
52719;BME280;38616;42.140;24.760;2023-04-20T08:06:40;99172.78;;;14.97;50.36
52719;BME280;38616;42.140;24.760;2023-04-20T08:09:06;99182.41;;;14.86;50.60
52719;BME280;38616;42.140;24.760;2023-04-20T08:11:32;99176.97;;;15.03;50.64
52719;BME280;38616;42.140;24.760;2023-04-20T08:13:57;99180.81;;;15.11;50.24
52719;BME280;38616;42.140;24.760;2023-04-20T08:16:23;99164.25;;;15.25;50.23
52719;BME280;38616;42.140;24.760;2023-04-20T08:18:50;99170.84;;;15.33;50.14
52719;BME280;38616;42.140;24.760;2023-04-20T08:21:15;99171.66;;;15.25;50.45
52719;BME280;38616;42.140;24.760;2023-04-20T08:23:41;99169.09;;;15.28;49.52
52719;BME280;38616;42.140;24.760;2023-04-20T08:26:06;99162.97;;;15.14;50.10
52719;BME280;38616;42.140;24.760;2023-04-20T08:28:32;99166.31;;;15.02;50.98
52719;BME280;38616;42.140;24.760;2023-04-20T08:30:58;99171.66;;;15.25;51.08
52719;BME280;38616;42.140;24.760;2023-04-20T08:33:23;99171.16;;;15.40;50.98
52719;BME280;38616;42.140;24.760;2023-04-20T08:35:51;99164.56;;;15.24;50.92
52719;BME280;38616;42.140;24.760;2023-04-20T08:38:17;99168.09;;;15.59;50.28
52719;BME280;38616;42.140;24.760;2023-04-20T08:40:43;99156.66;;;15.66;50.22
52719;BME280;38616;42.140;24.760;2023-04-20T08:43:08;99166.44;;;15.93;49.25
52719;BME280;38616;42.140;24.760;2023-04-20T08:45:36;99160.00;;;15.72;49.87
52719;BME280;38616;42.140;24.760;2023-04-20T08:48:05;99157.28;;;15.80;49.06
52719;BME280;38616;42.140;24.760;2023-04-20T08:50:32;99146.66;;;15.70;49.18
52719;BME280;38616;42.140;24.760;2023-04-20T08:53:00;99143.56;;;15.89;48.98
52719;BME280;38616;42.140;24.760;2023-04-20T08:55:27;99151.72;;;16.07;47.91
52719;BME280;38616;42.140;24.760;2023-04-20T08:57:52;99141.31;;;15.74;47.44
52719;BME280;38616;42.140;24.760;2023-04-20T09:00:18;99146.56;;;16.14;46.67
52719;BME280;38616;42.140;24.760;2023-04-20T09:02:51;99143.66;;;16.10;46.86
52719;BME280;38616;42.140;24.760;2023-04-20T09:05:28;99141.31;;;16.30;45.79
52719;BME280;38616;42.140;24.760;2023-04-20T09:07:55;99148.56;;;15.87;46.78
52719;BME280;38616;42.140;24.760;2023-04-20T09:10:24;99133.81;;;16.09;47.79
52719;BME280;38616;42.140;24.760;2023-04-20T09:12:50;99143.34;;;16.42;47.17
52719;BME280;38616;42.140;24.760;2023-04-20T09:15:28;99142.53;;;16.72;47.23
52719;BME280;38616;42.140;24.760;2023-04-20T09:17:54;99139.53;;;16.64;46.51
52719;BME280;38616;42.140;24.760;2023-04-20T09:20:33;99142.19;;;16.52;46.25
52719;BME280;38616;42.140;24.760;2023-04-20T09:23:16;99139.47;;;16.13;45.31
52719;BME280;38616;42.140;24.760;2023-04-20T09:25:42;99153.59;;;16.24;45.24
52719;BME280;38616;42.140;24.760;2023-04-20T09:30:54;99131.38;;;16.77;44.75
52719;BME280;38616;42.140;24.760;2023-04-20T09:33:26;99130.44;;;16.73;44.55
52719;BME280;38616;42.140;24.760;2023-04-20T09:35:52;99136.88;;;16.77;44.80
52719;BME280;38616;42.140;24.760;2023-04-20T09:38:24;99123.97;;;16.98;45.17
52719;BME280;38616;42.140;24.760;2023-04-20T09:40:51;99112.66;;;17.21;44.84
52719;BME280;38616;42.140;24.760;2023-04-20T09:43:21;99121.34;;;17.23;44.61
52719;BME280;38616;42.140;24.760;2023-04-20T09:45:48;99123.06;;;17.28;44.19
52719;BME280;38616;42.140;24.760;2023-04-20T09:48:14;99116.81;;;17.06;44.03
52719;BME280;38616;42.140;24.760;2023-04-20T09:50:43;99116.47;;;17.08;43.64
52719;BME280;38616;42.140;24.760;2023-04-20T09:53:09;99128.00;;;17.01;42.85
52719;BME280;38616;42.140;24.760;2023-04-20T09:55:36;99131.53;;;17.02;42.52
52719;BME280;38616;42.140;24.760;2023-04-20T09:58:03;99119.66;;;16.89;41.75
52719;BME280;38616;42.140;24.760;2023-04-20T10:00:29;99110.66;;;17.09;41.85
52719;BME280;38616;42.140;24.760;2023-04-20T10:02:55;99116.31;;;17.25;41.56
52719;BME280;38616;42.140;24.760;2023-04-20T10:05:34;99109.47;;;16.89;42.56
52719;BME280;38616;42.140;24.760;2023-04-20T10:08:01;99106.31;;;17.08;41.93
52719;BME280;38616;42.140;24.760;2023-04-20T10:10:26;99102.47;;;17.22;42.11
52719;BME280;38616;42.140;24.760;2023-04-20T10:12:58;99098.81;;;17.51;41.09
52719;BME280;38616;42.140;24.760;2023-04-20T10:15:35;99093.00;;;17.65;40.60
52719;BME280;38616;42.140;24.760;2023-04-20T10:18:01;99092.56;;;17.88;40.36
52719;BME280;38616;42.140;24.760;2023-04-20T10:20:27;99097.69;;;17.77;40.38
52719;BME280;38616;42.140;24.760;2023-04-20T10:22:57;99091.94;;;17.57;40.39
52719;BME280;38616;42.140;24.760;2023-04-20T10:25:30;99092.38;;;17.47;40.58
52719;BME280;38616;42.140;24.760;2023-04-20T10:27:56;99073.53;;;17.70;40.86
52719;BME280;38616;42.140;24.760;2023-04-20T10:30:27;99076.78;;;17.97;40.90
52719;BME280;38616;42.140;24.760;2023-04-20T10:33:08;99074.50;;;18.24;40.69
52719;BME280;38616;42.140;24.760;2023-04-20T10:35:53;99081.16;;;18.23;40.89
52719;BME280;38616;42.140;24.760;2023-04-20T10:38:35;99076.78;;;17.97;41.38
52719;BME280;38616;42.140;24.760;2023-04-20T10:41:11;99076.69;;;18.19;40.44
52719;BME280;38616;42.140;24.760;2023-04-20T10:43:37;99073.00;;;18.52;40.25
52719;BME280;38616;42.140;24.760;2023-04-20T10:46:20;99069.50;;;18.67;40.45
52719;BME280;38616;42.140;24.760;2023-04-20T10:49:03;99065.84;;;18.63;39.30
52719;BME280;38616;42.140;24.760;2023-04-20T10:51:29;99072.91;;;18.76;39.17
52719;BME280;38616;42.140;24.760;2023-04-20T10:54:03;99082.28;;;19.00;39.12
52719;BME280;38616;42.140;24.760;2023-04-20T10:56:39;99078.22;;;19.10;38.63
52719;BME280;38616;42.140;24.760;2023-04-20T10:59:06;99073.63;;;19.14;37.92
52719;BME280;38616;42.140;24.760;2023-04-20T11:01:32;99074.75;;;19.13;37.87
52719;BME280;38616;42.140;24.760;2023-04-20T11:03:58;99081.34;;;18.55;38.15
52719;BME280;38616;42.140;24.760;2023-04-20T11:06:23;99088.09;;;17.83;39.55
52719;BME280;38616;42.140;24.760;2023-04-20T11:08:48;99088.31;;;17.91;40.19
52719;BME280;38616;42.140;24.760;2023-04-20T11:11:18;99093.31;;;17.51;43.80
52719;BME280;38616;42.140;24.760;2023-04-20T11:13:44;99104.63;;;16.95;47.55
52719;BME280;38616;42.140;24.760;2023-04-20T11:16:14;99122.81;;;16.48;52.32
52719;BME280;38616;42.140;24.760;2023-04-20T11:18:51;99111.13;;;15.44;55.58
52719;BME280;38616;42.140;24.760;2023-04-20T11:21:19;99101.84;;;15.75;58.31
52719;BME280;38616;42.140;24.760;2023-04-20T11:23:46;99090.53;;;15.94;55.73
52719;BME280;38616;42.140;24.760;2023-04-20T11:26:12;99078.91;;;15.97;55.83
52719;BME280;38616;42.140;24.760;2023-04-20T11:28:37;99076.19;;;15.97;54.70
52719;BME280;38616;42.140;24.760;2023-04-20T11:31:05;99073.06;;;16.07;54.64
52719;BME280;38616;42.140;24.760;2023-04-20T11:33:31;99066.75;;;16.16;54.85
52719;BME280;38616;42.140;24.760;2023-04-20T11:35:58;99064.84;;;16.37;53.35
52719;BME280;38616;42.140;24.760;2023-04-20T11:38:29;99055.97;;;16.40;51.14
52719;BME280;38616;42.140;24.760;2023-04-20T11:40:55;99056.50;;;16.55;51.00
52719;BME280;38616;42.140;24.760;2023-04-20T11:43:20;99057.31;;;16.55;50.76
52719;BME280;38616;42.140;24.760;2023-04-20T11:45:46;99051.91;;;16.68;51.97
52719;BME280;38616;42.140;24.760;2023-04-20T11:48:12;99046.59;;;16.84;51.21
52719;BME280;38616;42.140;24.760;2023-04-20T11:50:37;99048.59;;;16.96;51.15
52719;BME280;38616;42.140;24.760;2023-04-20T11:53:02;99047.78;;;16.95;49.92
52719;BME280;38616;42.140;24.760;2023-04-20T11:55:28;99035.38;;;16.98;50.48
52719;BME280;38616;42.140;24.760;2023-04-20T11:57:53;99040.00;;;17.06;50.52
52719;BME280;38616;42.140;24.760;2023-04-20T12:00:19;99032.75;;;17.02;50.83
52719;BME280;38616;42.140;24.760;2023-04-20T12:02:44;99028.44;;;17.13;49.97
52719;BME280;38616;42.140;24.760;2023-04-20T12:05:10;99024.13;;;17.24;47.80
52719;BME280;38616;42.140;24.760;2023-04-20T12:07:36;99023.38;;;17.49;48.10
52719;BME280;38616;42.140;24.760;2023-04-20T12:10:01;99021.22;;;17.67;47.26
52719;BME280;38616;42.140;24.760;2023-04-20T12:12:26;99025.13;;;17.78;45.97
52719;BME280;38616;42.140;24.760;2023-04-20T12:14:52;99026.28;;;17.90;42.81
52719;BME280;38616;42.140;24.760;2023-04-20T12:17:17;99021.38;;;17.83;42.00
52719;BME280;38616;42.140;24.760;2023-04-20T12:19:43;99015.88;;;17.70;41.39
52719;BME280;38616;42.140;24.760;2023-04-20T12:22:08;99009.69;;;17.73;41.52
52719;BME280;38616;42.140;24.760;2023-04-20T12:24:33;99006.81;;;17.95;41.78
52719;BME280;38616;42.140;24.760;2023-04-20T12:26:59;99009.22;;;18.21;38.77
52719;BME280;38616;42.140;24.760;2023-04-20T12:29:24;99002.81;;;18.17;37.89
52719;BME280;38616;42.140;24.760;2023-04-20T12:31:50;99008.38;;;18.45;37.50
52719;BME280;38616;42.140;24.760;2023-04-20T12:34:15;98989.41;;;18.69;37.83
52719;BME280;38616;42.140;24.760;2023-04-20T12:36:40;98994.28;;;18.75;37.91
52719;BME280;38616;42.140;24.760;2023-04-20T12:39:06;98995.06;;;18.88;38.07
52719;BME280;38616;42.140;24.760;2023-04-20T12:41:31;98994.97;;;18.72;38.08
52719;BME280;38616;42.140;24.760;2023-04-20T12:43:57;98979.13;;;18.82;38.82
52719;BME280;38616;42.140;24.760;2023-04-20T12:46:22;98986.94;;;18.80;38.30
52719;BME280;38616;42.140;24.760;2023-04-20T12:48:48;98985.59;;;18.73;38.66
52719;BME280;38616;42.140;24.760;2023-04-20T12:51:13;99001.75;;;18.34;38.67